sensor_id;sensor_type;location;lat;lon;timestamp;pressure;altitude;pressure_sealevel;temperature
62930;BMP280;49036;42.782;23.108;2023-11-18T00:00:08;-14145.03;;;3.18
62930;BMP280;49036;42.782;23.108;2023-11-18T00:02:37;-14144.84;;;3.18
62930;BMP280;49036;42.782;23.108;2023-11-18T00:05:03;-14143.31;;;3.13
62930;BMP280;49036;42.782;23.108;2023-11-18T00:07:28;-14142.78;;;3.12
62930;BMP280;49036;42.782;23.108;2023-11-18T00:09:54;-14142.25;;;3.10
62930;BMP280;49036;42.782;23.108;2023-11-18T00:12:19;-14142.78;;;3.12
62930;BMP280;49036;42.782;23.108;2023-11-18T00:14:45;-14142.78;;;3.12
62930;BMP280;49036;42.782;23.108;2023-11-18T00:17:11;-14142.25;;;3.10
62930;BMP280;49036;42.782;23.108;2023-11-18T00:19:37;-14140.72;;;3.06
62930;BMP280;49036;42.782;23.108;2023-11-18T00:22:03;-14141.06;;;3.07
62930;BMP280;49036;42.782;23.108;2023-11-18T00:24:28;-14141.41;;;3.08
62930;BMP280;49036;42.782;23.108;2023-11-18T00:26:54;-14141.22;;;3.07
62930;BMP280;49036;42.782;23.108;2023-11-18T00:29:20;-14141.22;;;3.07
62930;BMP280;49036;42.782;23.108;2023-11-18T00:31:46;-14141.41;;;3.08
62930;BMP280;49036;42.782;23.108;2023-11-18T00:34:11;-14141.75;;;3.09
62930;BMP280;49036;42.782;23.108;2023-11-18T00:36:37;-14141.91;;;3.09
62930;BMP280;49036;42.782;23.108;2023-11-18T00:39:02;-14141.91;;;3.09
62930;BMP280;49036;42.782;23.108;2023-11-18T00:41:29;-14140.72;;;3.06
62930;BMP280;49036;42.782;23.108;2023-11-18T00:43:55;-14140.88;;;3.06
62930;BMP280;49036;42.782;23.108;2023-11-18T00:46:21;-14141.75;;;3.09
62930;BMP280;49036;42.782;23.108;2023-11-18T01:00:46;-14149.34;;;3.31
62930;BMP280;49036;42.782;23.108;2023-11-18T01:03:12;-14147.78;;;3.27
62930;BMP280;49036;42.782;23.108;2023-11-18T01:05:38;-14144.16;;;3.16
62930;BMP280;49036;42.782;23.108;2023-11-18T01:08:04;-14140.88;;;3.06
62930;BMP280;49036;42.782;23.108;2023-11-18T01:10:30;-14138.28;;;2.99
62930;BMP280;49036;42.782;23.108;2023-11-18T01:12:56;-14137.94;;;2.98
62930;BMP280;49036;42.782;23.108;2023-11-18T01:15:23;-14136.22;;;2.93
62930;BMP280;49036;42.782;23.108;2023-11-18T01:17:49;-14134.50;;;2.87
62930;BMP280;49036;42.782;23.108;2023-11-18T01:20:14;-14133.81;;;2.85
62930;BMP280;49036;42.782;23.108;2023-11-18T01:22:46;-14132.06;;;2.80
62930;BMP280;49036;42.782;23.108;2023-11-18T01:25:12;-14130.53;;;2.76
62930;BMP280;49036;42.782;23.108;2023-11-18T01:27:38;-14129.16;;;2.72
62930;BMP280;49036;42.782;23.108;2023-11-18T01:30:05;-14129.66;;;2.73
62930;BMP280;49036;42.782;23.108;2023-11-18T01:32:31;-14128.44;;;2.70
62930;BMP280;49036;42.782;23.108;2023-11-18T01:34:57;-14126.91;;;2.65
62930;BMP280;49036;42.782;23.108;2023-11-18T01:37:22;-14126.22;;;2.63
62930;BMP280;49036;42.782;23.108;2023-11-18T01:39:49;-14127.06;;;2.66
62930;BMP280;49036;42.782;23.108;2023-11-18T01:42:15;-14125.00;;;2.59
62930;BMP280;49036;42.782;23.108;2023-11-18T01:44:40;-14123.09;;;2.54
62930;BMP280;49036;42.782;23.108;2023-11-18T01:47:07;-14121.56;;;2.49
62930;BMP280;49036;42.782;23.108;2023-11-18T01:49:37;-14120.00;;;2.45
62930;BMP280;49036;42.782;23.108;2023-11-18T01:52:05;-14118.09;;;2.39
62930;BMP280;49036;42.782;23.108;2023-11-18T01:54:34;-14115.16;;;2.30
62930;BMP280;49036;42.782;23.108;2023-11-18T01:57:00;-14115.34;;;2.31
62930;BMP280;49036;42.782;23.108;2023-11-18T01:59:28;-14113.78;;;2.26
62930;BMP280;49036;42.782;23.108;2023-11-18T02:01:55;-14113.44;;;2.25
62930;BMP280;49036;42.782;23.108;2023-11-18T02:04:24;-14112.75;;;2.23
62930;BMP280;49036;42.782;23.108;2023-11-18T02:06:50;-14111.38;;;2.19
62930;BMP280;49036;42.782;23.108;2023-11-18T02:09:17;-14110.84;;;2.18
62930;BMP280;49036;42.782;23.108;2023-11-18T02:14:20;-14106.53;;;2.05
62930;BMP280;49036;42.782;23.108;2023-11-18T02:16:48;-14105.16;;;2.01
62930;BMP280;49036;42.782;23.108;2023-11-18T02:19:21;-14104.13;;;1.98
62930;BMP280;49036;42.782;23.108;2023-11-18T02:21:47;-14103.59;;;1.96
62930;BMP280;49036;42.782;23.108;2023-11-18T02:24:41;-14102.91;;;1.94
62930;BMP280;49036;42.782;23.108;2023-11-18T02:27:07;-14099.97;;;1.86
62930;BMP280;49036;42.782;23.108;2023-11-18T02:29:39;-14099.28;;;1.84
62930;BMP280;49036;42.782;23.108;2023-11-18T02:34:40;-14095.84;;;1.73
62930;BMP280;49036;42.782;23.108;2023-11-18T02:37:08;-14096.34;;;1.75
62930;BMP280;49036;42.782;23.108;2023-11-18T02:39:39;-14093.94;;;1.68
62930;BMP280;49036;42.782;23.108;2023-11-18T02:42:08;-14092.56;;;1.64
62930;BMP280;49036;42.782;23.108;2023-11-18T02:44:38;-14091.88;;;1.62
62930;BMP280;49036;42.782;23.108;2023-11-18T02:47:03;-14090.13;;;1.57
62930;BMP280;49036;42.782;23.108;2023-11-18T02:49:34;77412.84;;;1.54
62930;BMP280;49036;42.782;23.108;2023-11-18T02:52:00;77686.91;;;1.49
62930;BMP280;49036;42.782;23.108;2023-11-18T02:54:25;78840.84;;;1.52
62930;BMP280;49036;42.782;23.108;2023-11-18T02:56:51;80353.97;;;1.55
62930;BMP280;49036;42.782;23.108;2023-11-18T02:59:17;80786.97;;;1.53
62930;BMP280;49036;42.782;23.108;2023-11-18T03:01:42;79179.09;;;1.55
62930;BMP280;49036;42.782;23.108;2023-11-18T03:04:08;81022.09;;;1.56
62930;BMP280;49036;42.782;23.108;2023-11-18T03:06:35;81554.44;;;1.48
62930;BMP280;49036;42.782;23.108;2023-11-18T03:09:01;81678.59;;;1.45
62930;BMP280;49036;42.782;23.108;2023-11-18T03:11:28;84064.03;;;1.40
62930;BMP280;49036;42.782;23.108;2023-11-18T03:13:57;83530.47;;;1.34
62930;BMP280;49036;42.782;23.108;2023-11-18T03:16:24;84292.91;;;1.28
62930;BMP280;49036;42.782;23.108;2023-11-18T03:18:50;83081.34;;;1.22
62930;BMP280;49036;42.782;23.108;2023-11-18T03:21:16;84065.75;;;1.10
62930;BMP280;49036;42.782;23.108;2023-11-18T03:23:42;83950.88;;;1.07
62930;BMP280;49036;42.782;23.108;2023-11-18T03:26:10;85120.78;;;1.02
62930;BMP280;49036;42.782;23.108;2023-11-18T03:28:36;85279.50;;;1.01
62930;BMP280;49036;42.782;23.108;2023-11-18T03:31:06;85970.63;;;1.06
62930;BMP280;49036;42.782;23.108;2023-11-18T03:33:32;86403.16;;;1.10
62930;BMP280;49036;42.782;23.108;2023-11-18T03:35:58;86631.38;;;1.11
62930;BMP280;49036;42.782;23.108;2023-11-18T03:38:24;86696.13;;;1.13
62930;BMP280;49036;42.782;23.108;2023-11-18T03:40:50;86781.28;;;1.13
62930;BMP280;49036;42.782;23.108;2023-11-18T03:43:17;86534.59;;;1.14
62930;BMP280;49036;42.782;23.108;2023-11-18T03:45:43;86334.97;;;1.12
62930;BMP280;49036;42.782;23.108;2023-11-18T03:48:09;86193.97;;;1.10
62930;BMP280;49036;42.782;23.108;2023-11-18T03:50:39;87552.81;;;1.09
62930;BMP280;49036;42.782;23.108;2023-11-18T03:53:04;87427.41;;;1.09
62930;BMP280;49036;42.782;23.108;2023-11-18T03:55:30;87652.31;;;1.12
62930;BMP280;49036;42.782;23.108;2023-11-18T03:57:55;87423.31;;;1.08
62930;BMP280;49036;42.782;23.108;2023-11-18T04:00:22;88274.03;;;1.10
62930;BMP280;49036;42.782;23.108;2023-11-18T04:02:55;87903.84;;;1.09
62930;BMP280;49036;42.782;23.108;2023-11-18T04:05:21;87695.91;;;1.04
62930;BMP280;49036;42.782;23.108;2023-11-18T04:07:46;88046.31;;;1.07
62930;BMP280;49036;42.782;23.108;2023-11-18T04:10:12;88378.91;;;1.01
62930;BMP280;49036;42.782;23.108;2023-11-18T04:12:37;88031.25;;;1.00
62930;BMP280;49036;42.782;23.108;2023-11-18T04:15:04;88276.59;;;0.98
62930;BMP280;49036;42.782;23.108;2023-11-18T04:17:30;87868.31;;;0.99
62930;BMP280;49036;42.782;23.108;2023-11-18T04:19:56;87399.44;;;0.99
62930;BMP280;49036;42.782;23.108;2023-11-18T04:22:22;87383.78;;;0.99
62930;BMP280;49036;42.782;23.108;2023-11-18T04:24:48;87409.69;;;0.98
62930;BMP280;49036;42.782;23.108;2023-11-18T04:27:14;85598.34;;;0.97
62930;BMP280;49036;42.782;23.108;2023-11-18T04:29:39;86770.59;;;0.93
62930;BMP280;49036;42.782;23.108;2023-11-18T04:32:08;86810.13;;;0.94
62930;BMP280;49036;42.782;23.108;2023-11-18T04:34:37;88459.25;;;0.94
62930;BMP280;49036;42.782;23.108;2023-11-18T04:37:05;88825.25;;;0.92
62930;BMP280;49036;42.782;23.108;2023-11-18T04:39:34;89100.69;;;0.92
62930;BMP280;49036;42.782;23.108;2023-11-18T04:42:00;89125.22;;;0.92
62930;BMP280;49036;42.782;23.108;2023-11-18T04:44:29;89112.22;;;0.91
62930;BMP280;49036;42.782;23.108;2023-11-18T04:46:57;89126.56;;;0.91
62930;BMP280;49036;42.782;23.108;2023-11-18T04:49:22;89026.34;;;0.92
62930;BMP280;49036;42.782;23.108;2023-11-18T04:51:48;89367.25;;;0.92
62930;BMP280;49036;42.782;23.108;2023-11-18T04:54:13;89158.59;;;0.91
62930;BMP280;49036;42.782;23.108;2023-11-18T04:56:39;89214.47;;;0.90
62930;BMP280;49036;42.782;23.108;2023-11-18T04:59:05;89121.75;;;0.90
62930;BMP280;49036;42.782;23.108;2023-11-18T05:01:31;85971.06;;;0.88
62930;BMP280;49036;42.782;23.108;2023-11-18T05:03:57;88989.47;;;0.89
62930;BMP280;49036;42.782;23.108;2023-11-18T05:06:23;89195.97;;;0.86
62930;BMP280;49036;42.782;23.108;2023-11-18T05:08:48;88745.31;;;0.82
62930;BMP280;49036;42.782;23.108;2023-11-18T05:11:14;89187.91;;;0.67
62930;BMP280;49036;42.782;23.108;2023-11-18T05:13:41;88809.34;;;0.53
62930;BMP280;49036;42.782;23.108;2023-11-18T05:16:07;89617.91;;;0.46
62930;BMP280;49036;42.782;23.108;2023-11-18T05:18:32;89638.84;;;0.42
62930;BMP280;49036;42.782;23.108;2023-11-18T05:21:01;89466.53;;;0.43
62930;BMP280;49036;42.782;23.108;2023-11-18T05:23:28;89655.34;;;0.46
62930;BMP280;49036;42.782;23.108;2023-11-18T05:25:57;89844.13;;;0.46
62930;BMP280;49036;42.782;23.108;2023-11-18T05:28:23;89920.56;;;0.48
62930;BMP280;49036;42.782;23.108;2023-11-18T05:30:49;89821.09;;;0.49
62930;BMP280;49036;42.782;23.108;2023-11-18T05:33:16;90022.91;;;0.51
62930;BMP280;49036;42.782;23.108;2023-11-18T05:35:43;90028.34;;;0.51
62930;BMP280;49036;42.782;23.108;2023-11-18T05:38:17;90106.91;;;0.55
62930;BMP280;49036;42.782;23.108;2023-11-18T05:40:53;90167.75;;;0.59
62930;BMP280;49036;42.782;23.108;2023-11-18T05:43:25;90249.47;;;0.57
62930;BMP280;49036;42.782;23.108;2023-11-18T05:45:54;90199.06;;;0.58
62930;BMP280;49036;42.782;23.108;2023-11-18T05:48:38;89916.28;;;0.61
62930;BMP280;49036;42.782;23.108;2023-11-18T05:51:04;89882.72;;;0.56
62930;BMP280;49036;42.782;23.108;2023-11-18T05:53:30;90202.44;;;0.43
62930;BMP280;49036;42.782;23.108;2023-11-18T05:55:56;90201.69;;;0.27
62930;BMP280;49036;42.782;23.108;2023-11-18T05:58:21;90165.97;;;0.21
62930;BMP280;49036;42.782;23.108;2023-11-18T06:00:47;90117.63;;;0.21
62930;BMP280;49036;42.782;23.108;2023-11-18T06:03:13;90122.56;;;0.25
62930;BMP280;49036;42.782;23.108;2023-11-18T06:05:38;90085.31;;;0.29
62930;BMP280;49036;42.782;23.108;2023-11-18T06:08:05;90129.88;;;0.36
62930;BMP280;49036;42.782;23.108;2023-11-18T06:10:30;90145.00;;;0.39
62930;BMP280;49036;42.782;23.108;2023-11-18T06:12:59;90148.03;;;0.45
62930;BMP280;49036;42.782;23.108;2023-11-18T06:15:25;90207.50;;;0.49
62930;BMP280;49036;42.782;23.108;2023-11-18T06:17:51;90230.59;;;0.48
62930;BMP280;49036;42.782;23.108;2023-11-18T06:20:16;90287.34;;;0.51
62930;BMP280;49036;42.782;23.108;2023-11-18T06:22:42;90341.16;;;0.51
62930;BMP280;49036;42.782;23.108;2023-11-18T06:25:08;90395.78;;;0.53
62930;BMP280;49036;42.782;23.108;2023-11-18T06:27:34;90418.94;;;0.52
62930;BMP280;49036;42.782;23.108;2023-11-18T06:30:00;90435.38;;;0.54
62930;BMP280;49036;42.782;23.108;2023-11-18T06:32:26;90455.28;;;0.56
62930;BMP280;49036;42.782;23.108;2023-11-18T06:34:52;90458.91;;;0.61
62930;BMP280;49036;42.782;23.108;2023-11-18T06:37:19;90468.72;;;0.66
62930;BMP280;49036;42.782;23.108;2023-11-18T06:39:44;90491.25;;;0.67
62930;BMP280;49036;42.782;23.108;2023-11-18T06:42:13;90498.94;;;0.70
62930;BMP280;49036;42.782;23.108;2023-11-18T06:44:39;90511.34;;;0.73
62930;BMP280;49036;42.782;23.108;2023-11-18T06:47:05;90518.13;;;0.72
62930;BMP280;49036;42.782;23.108;2023-11-18T06:49:32;90480.25;;;0.78
62930;BMP280;49036;42.782;23.108;2023-11-18T06:52:00;90450.13;;;0.90
62930;BMP280;49036;42.782;23.108;2023-11-18T06:54:29;90514.28;;;0.91
62930;BMP280;49036;42.782;23.108;2023-11-18T06:56:55;90570.69;;;0.86
62930;BMP280;49036;42.782;23.108;2023-11-18T06:59:21;90582.13;;;0.97
62930;BMP280;49036;42.782;23.108;2023-11-18T07:01:47;90606.28;;;1.02
62930;BMP280;49036;42.782;23.108;2023-11-18T07:04:12;90643.41;;;1.07
62930;BMP280;49036;42.782;23.108;2023-11-18T07:06:39;90673.41;;;1.07
62930;BMP280;49036;42.782;23.108;2023-11-18T07:09:08;90728.59;;;1.06
62930;BMP280;49036;42.782;23.108;2023-11-18T07:11:46;90717.13;;;0.96
62930;BMP280;49036;42.782;23.108;2023-11-18T07:14:12;90656.91;;;1.05
62930;BMP280;49036;42.782;23.108;2023-11-18T07:16:40;90687.44;;;1.02
62930;BMP280;49036;42.782;23.108;2023-11-18T07:19:06;90692.69;;;0.98
62930;BMP280;49036;42.782;23.108;2023-11-18T07:21:33;90682.47;;;0.98
62930;BMP280;49036;42.782;23.108;2023-11-18T07:23:59;90697.31;;;0.95
62930;BMP280;49036;42.782;23.108;2023-11-18T07:26:24;90738.38;;;0.97
62930;BMP280;49036;42.782;23.108;2023-11-18T07:28:50;90755.88;;;1.06
62930;BMP280;49036;42.782;23.108;2023-11-18T07:31:17;90756.22;;;1.12
62930;BMP280;49036;42.782;23.108;2023-11-18T07:33:44;90713.38;;;1.14
62930;BMP280;49036;42.782;23.108;2023-11-18T07:36:15;90719.31;;;1.11
62930;BMP280;49036;42.782;23.108;2023-11-18T07:38:41;90736.91;;;1.08
62930;BMP280;49036;42.782;23.108;2023-11-18T07:41:07;90728.09;;;1.09
62930;BMP280;49036;42.782;23.108;2023-11-18T07:43:34;90724.16;;;1.12
62930;BMP280;49036;42.782;23.108;2023-11-18T07:46:02;90787.34;;;1.07
62930;BMP280;49036;42.782;23.108;2023-11-18T07:48:28;90817.75;;;1.01
62930;BMP280;49036;42.782;23.108;2023-11-18T07:50:53;90818.00;;;0.93
62930;BMP280;49036;42.782;23.108;2023-11-18T07:53:19;90827.00;;;0.96
62930;BMP280;49036;42.782;23.108;2023-11-18T07:55:44;90779.91;;;0.96
62930;BMP280;49036;42.782;23.108;2023-11-18T07:58:10;90751.28;;;0.97
62930;BMP280;49036;42.782;23.108;2023-11-18T08:00:40;90765.88;;;1.01
62930;BMP280;49036;42.782;23.108;2023-11-18T08:03:06;90813.34;;;0.96
62930;BMP280;49036;42.782;23.108;2023-11-18T08:05:40;90842.31;;;0.89
62930;BMP280;49036;42.782;23.108;2023-11-18T08:08:06;90841.72;;;0.91
62930;BMP280;49036;42.782;23.108;2023-11-18T08:10:34;90881.22;;;0.90
62930;BMP280;49036;42.782;23.108;2023-11-18T08:13:06;90873.66;;;0.88
62930;BMP280;49036;42.782;23.108;2023-11-18T08:15:42;90922.66;;;0.86
62930;BMP280;49036;42.782;23.108;2023-11-18T08:18:10;90896.69;;;0.85
62930;BMP280;49036;42.782;23.108;2023-11-18T08:20:36;90910.31;;;0.74
62930;BMP280;49036;42.782;23.108;2023-11-18T08:23:02;90858.03;;;0.77
62930;BMP280;49036;42.782;23.108;2023-11-18T08:25:30;90860.28;;;0.81
62930;BMP280;49036;42.782;23.108;2023-11-18T08:27:58;90843.91;;;0.81
62930;BMP280;49036;42.782;23.108;2023-11-18T08:30:23;90823.06;;;0.99
62930;BMP280;49036;42.782;23.108;2023-11-18T08:32:49;90822.59;;;1.03
62930;BMP280;49036;42.782;23.108;2023-11-18T08:35:15;90831.38;;;1.01
62930;BMP280;49036;42.782;23.108;2023-11-18T08:37:41;90859.03;;;0.96
62930;BMP280;49036;42.782;23.108;2023-11-18T08:40:11;90839.22;;;0.95
62930;BMP280;49036;42.782;23.108;2023-11-18T08:42:44;90817.84;;;1.03
62930;BMP280;49036;42.782;23.108;2023-11-18T08:45:25;90800.84;;;1.05
62930;BMP280;49036;42.782;23.108;2023-11-18T08:47:53;90859.38;;;1.02
62930;BMP280;49036;42.782;23.108;2023-11-18T08:50:20;90882.19;;;0.95
62930;BMP280;49036;42.782;23.108;2023-11-18T08:52:49;90889.41;;;1.02
62930;BMP280;49036;42.782;23.108;2023-11-18T08:55:18;90854.97;;;1.08
62930;BMP280;49036;42.782;23.108;2023-11-18T08:57:50;90899.34;;;1.20
62930;BMP280;49036;42.782;23.108;2023-11-18T09:00:28;90907.38;;;1.30
62930;BMP280;49036;42.782;23.108;2023-11-18T09:03:17;90944.78;;;1.28
62930;BMP280;49036;42.782;23.108;2023-11-18T09:05:49;90979.97;;;1.47
62930;BMP280;49036;42.782;23.108;2023-11-18T09:11:04;91011.19;;;1.56
62930;BMP280;49036;42.782;23.108;2023-11-18T09:13:33;91065.38;;;1.47
62930;BMP280;49036;42.782;23.108;2023-11-18T09:16:06;91053.13;;;1.60
62930;BMP280;49036;42.782;23.108;2023-11-18T09:18:35;91040.06;;;1.59
62930;BMP280;49036;42.782;23.108;2023-11-18T09:21:01;91086.72;;;1.51
62930;BMP280;49036;42.782;23.108;2023-11-18T09:23:29;91117.50;;;1.52
62930;BMP280;49036;42.782;23.108;2023-11-18T09:25:55;91102.03;;;1.44
62930;BMP280;49036;42.782;23.108;2023-11-18T09:28:23;91110.50;;;1.48
62930;BMP280;49036;42.782;23.108;2023-11-18T09:30:49;91119.50;;;1.51
62930;BMP280;49036;42.782;23.108;2023-11-18T09:33:19;91144.56;;;1.47
62930;BMP280;49036;42.782;23.108;2023-11-18T09:35:56;91181.75;;;1.41
62930;BMP280;49036;42.782;23.108;2023-11-18T09:38:29;91140.88;;;1.43
62930;BMP280;49036;42.782;23.108;2023-11-18T09:40:56;91168.44;;;1.35
62930;BMP280;49036;42.782;23.108;2023-11-18T09:43:22;91112.06;;;1.28
62930;BMP280;49036;42.782;23.108;2023-11-18T09:45:54;91124.28;;;1.27
62930;BMP280;49036;42.782;23.108;2023-11-18T09:48:22;91111.81;;;1.24
62930;BMP280;49036;42.782;23.108;2023-11-18T09:50:54;91076.91;;;1.23
62930;BMP280;49036;42.782;23.108;2023-11-18T09:53:20;91067.75;;;1.18
62930;BMP280;49036;42.782;23.108;2023-11-18T09:56:05;91063.00;;;1.18
62930;BMP280;49036;42.782;23.108;2023-11-18T09:58:40;91067.66;;;1.16
62930;BMP280;49036;42.782;23.108;2023-11-18T10:01:10;91074.88;;;1.11
62930;BMP280;49036;42.782;23.108;2023-11-18T10:03:42;91099.81;;;1.17
62930;BMP280;49036;42.782;23.108;2023-11-18T10:06:12;91119.16;;;1.22
62930;BMP280;49036;42.782;23.108;2023-11-18T10:08:40;91092.22;;;1.28
62930;BMP280;49036;42.782;23.108;2023-11-18T10:11:05;91137.44;;;1.31
62930;BMP280;49036;42.782;23.108;2023-11-18T10:13:35;91193.38;;;1.30
62930;BMP280;49036;42.782;23.108;2023-11-18T10:16:07;91186.25;;;1.25
62930;BMP280;49036;42.782;23.108;2023-11-18T10:18:33;91179.00;;;1.29
62930;BMP280;49036;42.782;23.108;2023-11-18T10:21:02;91243.19;;;1.18
62930;BMP280;49036;42.782;23.108;2023-11-18T10:23:29;91225.53;;;1.19
62930;BMP280;49036;42.782;23.108;2023-11-18T10:25:59;91210.47;;;1.30
62930;BMP280;49036;42.782;23.108;2023-11-18T10:28:28;91201.34;;;1.26
62930;BMP280;49036;42.782;23.108;2023-11-18T10:44:08;91292.69;;;1.69
62930;BMP280;49036;42.782;23.108;2023-11-18T10:46:40;91304.47;;;1.60
62930;BMP280;49036;42.782;23.108;2023-11-18T10:49:06;91287.00;;;1.54
62930;BMP280;49036;42.782;23.108;2023-11-18T10:51:35;91283.78;;;1.57
62930;BMP280;49036;42.782;23.108;2023-11-18T10:54:04;91315.47;;;1.51
62930;BMP280;49036;42.782;23.108;2023-11-18T10:56:46;91250.63;;;1.51
62930;BMP280;49036;42.782;23.108;2023-11-18T10:59:11;91279.19;;;1.60
62930;BMP280;49036;42.782;23.108;2023-11-18T11:01:42;91302.69;;;1.53
62930;BMP280;49036;42.782;23.108;2023-11-18T11:04:11;91354.59;;;1.53
62930;BMP280;49036;42.782;23.108;2023-11-18T11:06:42;91381.63;;;1.49
62930;BMP280;49036;42.782;23.108;2023-11-18T11:09:08;91334.28;;;1.68
62930;BMP280;49036;42.782;23.108;2023-11-18T11:11:49;91358.41;;;1.60
62930;BMP280;49036;42.782;23.108;2023-11-18T11:14:16;91365.75;;;1.57
62930;BMP280;49036;42.782;23.108;2023-11-18T11:16:50;91342.13;;;1.62
62930;BMP280;49036;42.782;23.108;2023-11-18T11:19:25;91340.22;;;1.53
62930;BMP280;49036;42.782;23.108;2023-11-18T11:22:07;91412.16;;;1.45
62930;BMP280;49036;42.782;23.108;2023-11-18T11:25:16;91366.47;;;1.58
62930;BMP280;49036;42.782;23.108;2023-11-18T11:27:59;91389.25;;;1.51
62930;BMP280;49036;42.782;23.108;2023-11-18T11:30:42;91354.44;;;1.51
62930;BMP280;49036;42.782;23.108;2023-11-18T11:33:42;91346.00;;;1.47
62930;BMP280;49036;42.782;23.108;2023-11-18T11:36:12;91308.72;;;1.52
62930;BMP280;49036;42.782;23.108;2023-11-18T11:38:38;91310.16;;;1.53
62930;BMP280;49036;42.782;23.108;2023-11-18T11:41:05;91343.28;;;1.47
62930;BMP280;49036;42.782;23.108;2023-11-18T11:43:34;91335.13;;;1.59
62930;BMP280;49036;42.782;23.108;2023-11-18T11:46:01;91359.56;;;1.57
62930;BMP280;49036;42.782;23.108;2023-11-18T11:48:35;91405.84;;;1.43
62930;BMP280;49036;42.782;23.108;2023-11-18T11:51:16;91340.16;;;1.41
62930;BMP280;49036;42.782;23.108;2023-11-18T11:53:53;91290.06;;;1.48
62930;BMP280;49036;42.782;23.108;2023-11-18T11:56:38;91266.06;;;1.46
62930;BMP280;49036;42.782;23.108;2023-11-18T11:59:03;91226.06;;;1.63
62930;BMP280;49036;42.782;23.108;2023-11-18T12:01:36;91242.34;;;1.61
62930;BMP280;49036;42.782;23.108;2023-11-18T12:04:08;91293.06;;;1.52
62930;BMP280;49036;42.782;23.108;2023-11-18T12:06:41;91307.53;;;1.55
62930;BMP280;49036;42.782;23.108;2023-11-18T12:09:09;91273.22;;;1.63
62930;BMP280;49036;42.782;23.108;2023-11-18T12:11:38;91329.19;;;1.62
62930;BMP280;49036;42.782;23.108;2023-11-18T12:14:11;91373.13;;;1.55
62930;BMP280;49036;42.782;23.108;2023-11-18T12:17:05;91354.81;;;1.57
62930;BMP280;49036;42.782;23.108;2023-11-18T12:19:35;91311.38;;;1.73
62930;BMP280;49036;42.782;23.108;2023-11-18T12:22:18;91384.13;;;1.78
62930;BMP280;49036;42.782;23.108;2023-11-18T12:35:23;91420.19;;;2.10
62930;BMP280;49036;42.782;23.108;2023-11-18T12:43:07;91513.22;;;1.88
62930;BMP280;49036;42.782;23.108;2023-11-18T12:45:43;91496.50;;;1.72
62930;BMP280;49036;42.782;23.108;2023-11-18T12:48:20;91442.63;;;1.63
62930;BMP280;49036;42.782;23.108;2023-11-18T12:50:54;91432.78;;;1.70
62930;BMP280;49036;42.782;23.108;2023-11-18T12:53:23;91416.19;;;1.78
62930;BMP280;49036;42.782;23.108;2023-11-18T12:55:49;91415.66;;;1.91
62930;BMP280;49036;42.782;23.108;2023-11-18T12:58:15;91386.75;;;1.99
62930;BMP280;49036;42.782;23.108;2023-11-18T13:00:43;91397.81;;;1.90
62930;BMP280;49036;42.782;23.108;2023-11-18T13:03:11;91417.19;;;1.94
62930;BMP280;49036;42.782;23.108;2023-11-18T13:05:41;91433.47;;;1.92
62930;BMP280;49036;42.782;23.108;2023-11-18T13:08:08;91431.34;;;1.69
62930;BMP280;49036;42.782;23.108;2023-11-18T13:10:35;91433.84;;;1.65
62930;BMP280;49036;42.782;23.108;2023-11-18T13:13:02;91435.97;;;1.66
62930;BMP280;49036;42.782;23.108;2023-11-18T13:15:27;91360.78;;;1.65
62930;BMP280;49036;42.782;23.108;2023-11-18T13:18:02;91349.94;;;1.56
62930;BMP280;49036;42.782;23.108;2023-11-18T13:20:32;91347.75;;;1.42
62930;BMP280;49036;42.782;23.108;2023-11-18T13:23:00;91317.13;;;1.44
62930;BMP280;49036;42.782;23.108;2023-11-18T13:25:33;91344.44;;;1.44
62930;BMP280;49036;42.782;23.108;2023-11-18T13:27:58;91347.16;;;1.44
62930;BMP280;49036;42.782;23.108;2023-11-18T13:30:24;91375.34;;;1.46
62930;BMP280;49036;42.782;23.108;2023-11-18T13:32:50;91377.09;;;1.42
62930;BMP280;49036;42.782;23.108;2023-11-18T13:35:16;91349.34;;;1.45
62930;BMP280;49036;42.782;23.108;2023-11-18T13:37:49;91331.69;;;1.37
62930;BMP280;49036;42.782;23.108;2023-11-18T13:40:15;91336.22;;;1.32
62930;BMP280;49036;42.782;23.108;2023-11-18T13:42:43;91352.38;;;1.28
62930;BMP280;49036;42.782;23.108;2023-11-18T13:45:12;91364.59;;;1.27
62930;BMP280;49036;42.782;23.108;2023-11-18T13:47:55;91313.16;;;1.24
62930;BMP280;49036;42.782;23.108;2023-11-18T13:50:22;91319.78;;;1.20
62930;BMP280;49036;42.782;23.108;2023-11-18T13:52:47;91318.09;;;1.15
62930;BMP280;49036;42.782;23.108;2023-11-18T13:55:16;91291.53;;;1.16
62930;BMP280;49036;42.782;23.108;2023-11-18T13:57:53;91272.28;;;1.14
62930;BMP280;49036;42.782;23.108;2023-11-18T14:00:21;91241.53;;;1.13
62930;BMP280;49036;42.782;23.108;2023-11-18T14:02:49;91247.72;;;1.14
62930;BMP280;49036;42.782;23.108;2023-11-18T14:05:18;91255.19;;;1.13
62930;BMP280;49036;42.782;23.108;2023-11-18T14:07:52;91236.66;;;1.12
62930;BMP280;49036;42.782;23.108;2023-11-18T14:10:18;91264.66;;;1.12
62930;BMP280;49036;42.782;23.108;2023-11-18T14:13:03;91272.84;;;1.12
62930;BMP280;49036;42.782;23.108;2023-11-18T14:15:33;91239.97;;;1.10
62930;BMP280;49036;42.782;23.108;2023-11-18T14:18:03;91242.72;;;1.10
62930;BMP280;49036;42.782;23.108;2023-11-18T14:20:28;91302.31;;;1.14
62930;BMP280;49036;42.782;23.108;2023-11-18T14:22:56;91320.13;;;1.15
62930;BMP280;49036;42.782;23.108;2023-11-18T14:25:23;91292.72;;;1.13
62930;BMP280;49036;42.782;23.108;2023-11-18T14:27:49;91297.09;;;1.18
62930;BMP280;49036;42.782;23.108;2023-11-18T14:30:15;91316.34;;;1.20
62930;BMP280;49036;42.782;23.108;2023-11-18T14:32:42;91292.34;;;1.18
62930;BMP280;49036;42.782;23.108;2023-11-18T14:35:08;91315.75;;;1.22
62930;BMP280;49036;42.782;23.108;2023-11-18T14:37:38;91253.41;;;1.18
62930;BMP280;49036;42.782;23.108;2023-11-18T14:40:11;91244.50;;;1.17
62930;BMP280;49036;42.782;23.108;2023-11-18T14:42:40;91249.03;;;1.13
62930;BMP280;49036;42.782;23.108;2023-11-18T14:45:06;91236.09;;;1.13
62930;BMP280;49036;42.782;23.108;2023-11-18T14:47:36;91229.78;;;1.11
62930;BMP280;49036;42.782;23.108;2023-11-18T14:50:02;91196.28;;;1.10
62930;BMP280;49036;42.782;23.108;2023-11-18T14:52:28;91221.47;;;1.09
62930;BMP280;49036;42.782;23.108;2023-11-18T14:54:54;91199.50;;;1.07
62930;BMP280;49036;42.782;23.108;2023-11-18T14:57:20;91218.63;;;1.07
62930;BMP280;49036;42.782;23.108;2023-11-18T14:59:45;91194.63;;;1.05
62930;BMP280;49036;42.782;23.108;2023-11-18T15:02:11;91191.78;;;1.03